Time;durP1;ratioP1;P1;durP2;ratioP2;P2;SDS_P1;SDS_P2;PMS_P1;PMS_P2;Temp;Humidity;BMP_temperature;BMP_pressure;BME280_temperature;BME280_humidity;BME280_pressure;Samples;Min_cycle;Max_cycle;Signal;HPM_P1;HPM_P2
2023/02/22 00:00:41;;;;;;;22.07;11.60;;;;;;;7.18;51.98;101136.72;5024759;28;20052;-76
2023/02/22 00:03:11;;;;;;;22.83;11.20;;;;;;;7.18;51.80;101144.91;5027353;28;20033;-75
2023/02/22 00:05:39;;;;;;;21.77;11.32;;;;;;;7.17;51.50;101147.72;5026816;28;20259;-76
2023/02/22 00:08:09;;;;;;;24.60;11.32;;;;;;;7.17;51.52;101147.72;5026544;28;20049;-76
2023/02/22 00:10:38;;;;;;;33.90;11.13;;;;;;;7.14;51.88;101142.47;5016347;28;20271;-76
2023/02/22 00:13:08;;;;;;;27.08;11.93;;;;;;;7.13;51.16;101144.31;5022726;28;20559;-76
2023/02/22 00:15:40;;;;;;;19.38;10.18;;;;;;;7.12;51.64;101141.69;5022163;28;20052;-76
2023/02/22 00:18:10;;;;;;;31.15;10.80;;;;;;;7.07;51.31;101142.03;5039866;28;20049;-76
2023/02/22 00:20:38;;;;;;;19.88;10.70;;;;;;;7.04;51.37;101139.50;5021293;28;20061;-75
2023/02/22 00:23:07;;;;;;;18.38;9.80;;;;;;;7.02;51.33;101136.03;5022176;28;20053;-76
2023/02/22 00:25:36;;;;;;;19.27;10.15;;;;;;;6.98;51.77;101130.91;5025111;28;20045;-76
2023/02/22 00:28:04;;;;;;;18.38;9.60;;;;;;;6.95;52.04;101122.94;5028670;28;20497;-75
2023/02/22 00:30:33;;;;;;;19.70;9.88;;;;;;;6.95;51.74;101128.38;5024385;28;20516;-76
2023/02/22 00:33:02;;;;;;;27.42;10.05;;;;;;;6.95;51.84;101131.09;5024469;28;20041;-75
2023/02/22 00:35:32;;;;;;;17.73;9.15;;;;;;;6.92;51.84;101125.88;5024672;28;20105;-76
2023/02/22 00:38:02;;;;;;;22.88;9.25;;;;;;;6.92;52.01;101124.03;5025628;28;20048;-76
2023/02/22 00:40:31;;;;;;;18.60;9.77;;;;;;;6.92;52.13;101115.88;5025564;28;20045;-76
2023/02/22 00:43:01;;;;;;;16.10;8.38;;;;;;;6.93;51.91;101120.34;5021526;28;20072;-76
2023/02/22 00:45:31;;;;;;;17.83;8.75;;;;;;;6.93;52.14;101120.34;5023396;28;20571;-76
2023/02/22 00:47:59;;;;;;;21.70;8.80;;;;;;;6.92;51.84;101115.00;5024478;28;20045;-76
2023/02/22 00:50:30;;;;;;;18.17;8.70;;;;;;;6.92;52.21;101117.72;5023277;28;20038;-76
2023/02/22 00:53:00;;;;;;;23.73;10.18;;;;;;;6.92;52.05;101115.88;5043654;28;20412;-76
2023/02/22 00:55:31;;;;;;;16.70;8.82;;;;;;;6.92;51.92;101115.00;5023666;28;20054;-76
2023/02/22 00:58:00;;;;;;;18.23;8.52;;;;;;;6.90;52.12;101114.22;5036903;28;20490;-76
2023/02/22 01:00:31;;;;;;;17.85;8.50;;;;;;;6.89;51.71;101113.34;5024164;28;20072;-75
2023/02/22 01:02:59;;;;;;;17.27;8.20;;;;;;;6.88;52.07;101110.72;5020679;28;20041;-76
2023/02/22 01:05:30;;;;;;;18.83;9.00;;;;;;;6.85;52.27;101102.78;5024771;28;20049;-76
2023/02/22 01:08:00;;;;;;;16.80;7.72;;;;;;;6.82;51.99;101102.00;5025569;28;20045;-76
2023/02/22 01:10:29;;;;;;;14.25;7.97;;;;;;;6.82;51.76;101103.88;5021927;28;20424;-76
2023/02/22 01:12:59;;;;;;;16.20;7.53;;;;;;;6.80;52.02;101098.53;5036070;28;20056;-76
2023/02/22 01:15:29;;;;;;;17.63;7.40;;;;;;;6.79;52.23;101088.59;5024037;28;20405;-75
2023/02/22 01:17:58;;;;;;;18.05;7.90;;;;;;;6.79;52.19;101083.16;5036819;28;20419;-76
2023/02/22 01:20:28;;;;;;;14.05;7.18;;;;;;;6.78;52.03;101086.00;5024462;28;20049;-76
2023/02/22 01:22:59;;;;;;;16.95;8.05;;;;;;;6.78;52.10;101084.16;5020296;28;20100;-75
2023/02/22 01:25:31;;;;;;;17.83;8.20;;;;;;;6.76;52.34;101075.25;5026743;28;20128;-76
2023/02/22 01:28:01;;;;;;;16.25;7.35;;;;;;;6.76;52.05;101079.81;5026789;28;20284;-76
2023/02/22 01:30:32;;;;;;;19.30;8.00;;;;;;;6.74;52.24;101085.34;5014336;28;20057;-75
2023/02/22 01:33:01;;;;;;;14.25;7.70;;;;;;;6.72;52.00;101081.81;5027457;28;20456;-76
2023/02/22 01:35:31;;;;;;;17.50;8.20;;;;;;;6.71;52.34;101079.19;5022680;28;20056;-75
2023/02/22 01:38:01;;;;;;;15.35;7.82;;;;;;;6.70;52.50;101069.28;5025465;28;20103;-76
2023/02/22 01:40:31;;;;;;;14.90;7.88;;;;;;;6.68;52.17;101066.69;5028058;28;20107;-76
2023/02/22 01:43:02;;;;;;;16.67;7.57;;;;;;;6.69;52.42;101070.28;5018891;28;20049;-76
2023/02/22 01:45:53;;;;;;;17.45;8.07;;;;;;;6.71;53.21;101065.59;5019423;28;20042;-76
2023/02/22 01:48:28;;;;;;;17.23;8.35;;;;;;;6.70;53.20;101062.00;5020301;28;20072;-76
2023/02/22 01:50:59;;;;;;;14.90;6.75;;;;;;;6.72;53.12;101059.19;5026145;28;20137;-76
2023/02/22 01:53:33;;;;;;;17.48;8.10;;;;;;;6.73;52.82;101052.78;5022410;28;20053;-76
2023/02/22 01:56:02;;;;;;;14.23;7.38;;;;;;;6.73;52.86;101055.50;5019487;28;20183;-76
2023/02/22 01:58:35;;;;;;;15.95;8.52;;;;;;;6.76;53.02;101058.03;5022643;28;20046;-76
2023/02/22 02:01:03;;;;;;;18.02;7.95;;;;;;;6.75;52.79;101053.56;5025966;28;20431;-76
2023/02/22 02:03:35;;;;;;;17.88;8.13;;;;;;;6.78;53.17;101051.50;5045976;28;20049;-76
2023/02/22 02:06:10;;;;;;;16.00;8.35;;;;;;;6.79;53.03;101047.81;5031161;28;20398;-75
2023/02/22 02:08:48;;;;;;;17.48;8.82;;;;;;;6.82;53.09;101050.31;5042095;28;20050;-76
2023/02/22 02:11:19;;;;;;;16.08;7.75;;;;;;;6.83;52.77;101040.31;5030356;28;20451;-76
2023/02/22 02:13:49;;;;;;;17.38;8.00;;;;;;;6.83;52.71;101045.75;5027154;28;20497;-76
2023/02/22 02:16:17;;;;;;;17.13;8.18;;;;;;;6.85;53.03;101041.09;5028752;28;20054;-76
2023/02/22 02:18:45;;;;;;;23.00;9.30;;;;;;;6.86;53.25;101036.53;5027920;28;20038;-75
2023/02/22 02:21:38;;;;;;;17.17;9.20;;;;;;;6.89;53.59;101037.16;5026461;28;20045;-75
2023/02/22 02:24:49;;;;;;;20.92;9.27;;;;;;;6.88;53.31;101034.53;4992258;28;20041;-78
2023/02/22 02:27:20;;;;;;;23.40;9.05;;;;;;;6.87;53.09;101033.66;5029783;28;20056;-78
2023/02/22 02:30:36;;;;;;;22.20;9.25;;;;;;;6.88;53.05;101026.38;5026324;28;20050;-75
2023/02/22 02:33:13;;;;;;;18.70;8.32;;;;;;;6.88;53.11;101027.25;5043839;28;20073;-76
2023/02/22 02:35:51;;;;;;;19.42;8.50;;;;;;;6.89;52.96;101025.41;5028229;28;20134;-75
2023/02/22 02:38:30;;;;;;;19.60;8.57;;;;;;;6.88;53.00;101020.94;5027215;28;20049;-76
2023/02/22 02:41:06;;;;;;;24.00;9.45;;;;;;;6.87;52.96;101022.78;5035930;28;20049;-76
2023/02/22 02:43:39;;;;;;;17.88;9.27;;;;;;;6.86;52.99;101021.03;5021485;28;20056;-75
2023/02/22 02:46:12;;;;;;;23.60;9.55;;;;;;;6.84;53.19;101017.59;5025364;28;20049;-75
2023/02/22 02:48:49;;;;;;;20.75;10.25;;;;;;;6.84;53.21;101014.88;5042010;28;20133;-76
2023/02/22 02:51:18;;;;;;;20.40;9.75;;;;;;;6.82;53.17;101012.25;5027127;28;20040;-76
2023/02/22 02:53:50;;;;;;;25.10;10.88;;;;;;;6.81;53.05;101015.94;5042498;28;20049;-75
2023/02/22 02:56:18;;;;;;;18.63;9.57;;;;;;;6.80;53.35;101016.03;5029948;28;20381;-78
2023/02/22 02:58:49;;;;;;;19.25;9.55;;;;;;;6.81;53.24;101007.78;5020392;28;20042;-76
2023/02/22 03:01:34;;;;;;;24.67;8.85;;;;;;;6.82;53.59;101008.66;5022204;28;20496;-75
2023/02/22 03:04:19;;;;;;;17.40;8.27;;;;;;;6.81;53.70;101006.91;5035560;28;20048;-76
2023/02/22 03:07:16;;;;;;;16.75;8.50;;;;;;;6.80;53.93;101011.47;5028439;28;20068;-75
2023/02/22 03:09:59;;;;;;;18.73;7.97;;;;;;;6.80;53.54;101005.16;5023121;28;20048;-76
2023/02/22 03:12:38;;;;;;;16.95;8.57;;;;;;;6.78;53.25;101004.38;5024109;28;20119;-75
2023/02/22 03:15:20;;;;;;;14.27;7.57;;;;;;;6.80;53.69;100988.84;5023434;28;20046;-76
2023/02/22 03:17:54;;;;;;;15.52;8.02;;;;;;;6.79;53.63;100989.81;5020076;28;20041;-75
2023/02/22 03:20:30;;;;;;;18.85;8.77;;;;;;;6.78;53.67;100991.66;5021181;28;20045;-75
2023/02/22 03:23:07;;;;;;;17.95;8.10;;;;;;;6.78;53.31;100996.22;5041997;28;20076;-75
2023/02/22 03:25:43;;;;;;;19.17;9.23;;;;;;;6.76;52.97;100993.63;5042960;28;20101;-76
2023/02/22 03:28:15;;;;;;;16.45;8.13;;;;;;;6.75;53.40;100996.47;5026087;28;20099;-76
2023/02/22 03:30:48;;;;;;;17.13;8.27;;;;;;;6.75;53.41;100989.16;5028840;28;20069;-75
2023/02/22 03:33:26;;;;;;;15.00;8.38;;;;;;;6.78;53.95;100998.94;5028422;28;20072;-75
2023/02/22 03:36:01;;;;;;;16.35;8.60;;;;;;;6.79;53.72;100993.41;5034219;28;20065;-76
2023/02/22 03:38:33;;;;;;;15.70;8.48;;;;;;;6.80;53.47;100997.88;5021923;28;20085;-75
2023/02/22 03:41:02;;;;;;;16.77;8.40;;;;;;;6.81;53.42;100990.59;5024668;28;20515;-76
2023/02/22 03:43:36;;;;;;;18.13;9.23;;;;;;;6.84;53.94;100993.09;5038946;28;20045;-75
2023/02/22 03:46:09;;;;;;;19.33;10.05;;;;;;;6.86;53.42;100993.00;5029922;28;20060;-76
2023/02/22 03:48:43;;;;;;;18.60;9.43;;;;;;;6.89;53.29;100998.19;5023349;28;20049;-76
2023/02/22 03:51:14;;;;;;;14.60;8.30;;;;;;;6.89;53.18;100993.63;5028773;28;20045;-76
2023/02/22 03:53:47;;;;;;;19.05;8.55;;;;;;;6.89;53.40;100992.75;5027917;28;20430;-76
2023/02/22 03:56:22;;;;;;;17.00;8.77;;;;;;;6.92;53.41;100996.16;5044966;28;20045;-76
2023/02/22 03:58:51;;;;;;;17.10;8.25;;;;;;;6.92;53.12;101001.59;5021399;28;20054;-75
2023/02/22 04:01:22;;;;;;;19.02;9.40;;;;;;;6.93;53.21;100997.03;5037093;28;20042;-76
2023/02/22 04:03:50;;;;;;;17.80;8.48;;;;;;;6.93;53.41;100997.03;5024965;28;20041;-75
2023/02/22 04:06:19;;;;;;;18.88;8.82;;;;;;;6.95;53.31;100998.63;5020519;28;20196;-76
2023/02/22 04:08:47;;;;;;;16.75;8.90;;;;;;;6.94;53.15;100996.06;5021958;28;20046;-75
2023/02/22 04:11:15;;;;;;;16.70;9.10;;;;;;;6.94;53.40;100990.59;5025423;28;20045;-76
2023/02/22 04:13:44;;;;;;;16.98;9.35;;;;;;;6.95;52.96;100995.03;5040770;28;20417;-75
2023/02/22 04:16:12;;;;;;;15.70;8.75;;;;;;;6.96;52.94;100999.50;5022421;28;20038;-75
2023/02/22 04:18:39;;;;;;;18.60;9.02;;;;;;;6.96;53.25;101002.22;5027834;28;20053;-76
2023/02/22 04:21:08;;;;;;;17.55;9.27;;;;;;;6.96;52.79;101005.81;5014825;28;20037;-76
2023/02/22 04:23:44;;;;;;;16.67;8.73;;;;;;;6.96;53.13;101005.81;5016875;28;20056;-76
2023/02/22 04:26:13;;;;;;;20.00;9.75;;;;;;;6.96;53.26;101000.38;5026002;28;20558;-76
2023/02/22 04:28:40;;;;;;;16.70;9.15;;;;;;;6.97;53.23;100996.69;5028897;28;20045;-76
2023/02/22 04:31:17;;;;;;;19.63;10.40;;;;;;;6.98;52.83;101001.16;5028018;28;20049;-75
2023/02/22 04:33:46;;;;;;;19.77;9.63;;;;;;;6.98;52.95;100986.69;5024865;28;20058;-75
2023/02/22 04:36:18;;;;;;;19.85;10.55;;;;;;;6.98;53.25;100987.56;5020307;28;20055;-76
2023/02/22 04:38:47;;;;;;;19.15;10.35;;;;;;;6.99;53.01;100980.25;5023190;28;20611;-76
2023/02/22 04:41:17;;;;;;;19.20;9.70;;;;;;;7.00;53.22;100979.28;5022877;28;20520;-75
2023/02/22 04:43:45;;;;;;;19.42;10.60;;;;;;;6.97;52.98;100974.91;5017894;28;20053;-76
2023/02/22 04:46:32;;;;;;;16.58;9.48;;;;;;;6.97;52.84;100977.66;5017336;28;20034;-76
2023/02/22 04:49:01;;;;;;;18.35;11.05;;;;;;;6.98;53.11;100975.78;5012803;28;20038;-77
2023/02/22 04:51:31;;;;;;;17.88;10.20;;;;;;;6.98;53.23;100973.06;5017274;28;20037;-75
2023/02/22 04:54:07;;;;;;;17.17;9.57;;;;;;;6.99;53.09;100967.53;5018081;28;20037;-76
2023/02/22 04:56:36;;;;;;;17.70;10.15;;;;;;;6.99;52.84;100974.81;5019496;28;20048;-76
2023/02/22 04:59:05;;;;;;;18.25;11.32;;;;;;;7.00;53.07;100962.97;5018818;28;20037;-76
2023/02/22 05:01:37;;;;;;;20.05;11.48;;;;;;;7.01;52.86;100959.25;5022295;28;20093;-76
2023/02/22 05:04:06;;;;;;;18.88;10.93;;;;;;;7.00;53.08;100955.66;5022647;28;20683;-78
2023/02/22 05:06:34;;;;;;;17.75;10.40;;;;;;;7.00;53.17;100960.25;5012986;28;20120;-76
2023/02/22 05:09:02;;;;;;;19.70;10.93;;;;;;;7.00;52.94;100952.06;5021338;28;20057;-76
2023/02/22 05:11:31;;;;;;;19.08;10.73;;;;;;;7.00;52.89;100950.22;5020731;28;20034;-76
2023/02/22 05:13:59;;;;;;;20.10;10.85;;;;;;;6.98;53.09;100944.00;5021848;28;20050;-75
2023/02/22 05:16:26;;;;;;;20.73;11.65;;;;;;;6.99;52.80;100940.31;5022515;28;20394;-76
2023/02/22 05:18:54;;;;;;;23.55;11.68;;;;;;;6.98;53.00;100943.13;5016260;28;20509;-76
2023/02/22 05:21:22;;;;;;;19.55;11.18;;;;;;;6.96;53.00;100937.81;5024295;28;20042;-76
2023/02/22 05:23:50;;;;;;;21.83;11.88;;;;;;;6.95;52.59;100936.06;5022873;28;20077;-77
2023/02/22 05:26:18;;;;;;;20.75;11.40;;;;;;;6.92;52.51;100935.44;5024023;28;20054;-76
2023/02/22 05:28:47;;;;;;;21.83;11.50;;;;;;;6.91;52.81;100928.25;5033461;28;20506;-75
2023/02/22 05:31:16;;;;;;;20.83;10.35;;;;;;;6.86;52.67;100933.97;5019855;28;20489;-76
2023/02/22 05:33:44;;;;;;;19.55;10.35;;;;;;;6.84;52.48;100932.38;5038348;28;20463;-76
2023/02/22 05:36:12;;;;;;;21.25;11.38;;;;;;;6.80;52.38;100929.00;5018522;28;20115;-76
2023/02/22 05:38:42;;;;;;;18.08;9.95;;;;;;;6.77;52.55;100930.09;5026394;28;20448;-76
2023/02/22 05:41:11;;;;;;;17.83;9.38;;;;;;;6.74;52.33;100924.88;5026795;28;20045;-76
2023/02/22 05:43:39;;;;;;;17.77;9.30;;;;;;;6.70;52.66;100923.28;5025066;28;20042;-75
2023/02/22 05:46:08;;;;;;;18.30;9.63;;;;;;;6.69;52.24;100926.16;5023699;28;20049;-76
2023/02/22 05:48:36;;;;;;;16.90;10.25;;;;;;;6.62;52.34;100914.81;5018613;28;20590;-77
2023/02/22 05:51:04;;;;;;;20.67;10.02;;;;;;;6.59;52.28;100922.31;5019170;28;20541;-78
2023/02/22 05:53:32;;;;;;;16.27;8.95;;;;;;;6.56;52.63;100922.53;5022822;28;20131;-77
2023/02/22 05:56:00;;;;;;;18.15;9.55;;;;;;;6.53;52.33;100918.16;5028389;28;20103;-77
2023/02/22 05:58:28;;;;;;;16.70;8.82;;;;;;;6.49;52.40;100916.66;5017425;28;20052;-78
2023/02/22 06:00:56;;;;;;;13.63;8.15;;;;;;;6.47;52.47;100912.28;5026324;28;20045;-78
2023/02/22 06:03:25;;;;;;;15.15;9.05;;;;;;;6.44;52.30;100919.69;5025109;28;20155;-78
2023/02/22 06:05:53;;;;;;;17.05;9.43;;;;;;;6.41;52.44;100913.59;5001363;28;20086;-77
2023/02/22 06:08:21;;;;;;;15.40;9.05;;;;;;;6.39;52.75;100916.41;5018677;28;20049;-77
2023/02/22 06:10:48;;;;;;;14.93;8.98;;;;;;;6.37;52.82;100915.63;5022467;28;20120;-77
2023/02/22 06:13:16;;;;;;;14.77;8.10;;;;;;;6.36;52.54;100911.22;5021349;28;20038;-77
2023/02/22 06:15:44;;;;;;;17.33;8.90;;;;;;;6.35;52.68;100908.59;5027947;28;20606;-76
2023/02/22 06:18:12;;;;;;;16.08;8.68;;;;;;;6.34;52.69;100902.28;5021049;28;20111;-77
2023/02/22 06:20:41;;;;;;;13.02;7.78;;;;;;;6.36;52.59;100913.94;5038133;28;20455;-76
2023/02/22 06:23:09;;;;;;;13.85;8.18;;;;;;;6.35;52.99;100911.31;5020825;28;20095;-76
2023/02/22 06:25:36;;;;;;;15.90;8.57;;;;;;;6.34;52.64;100909.56;5023267;28;20049;-76
2023/02/22 06:28:04;;;;;;;14.02;8.57;;;;;;;6.36;52.46;100919.38;5028014;28;20498;-77
2023/02/22 06:30:32;;;;;;;15.68;8.43;;;;;;;6.34;52.50;100907.72;5022728;28;20058;-76
2023/02/22 06:33:00;;;;;;;15.52;9.30;;;;;;;6.33;52.19;100907.81;5022554;28;20036;-77
2023/02/22 06:35:28;;;;;;;16.50;9.55;;;;;;;6.31;52.51;100902.47;5024185;28;20033;-76
2023/02/22 06:37:57;;;;;;;15.90;9.95;;;;;;;6.33;52.25;100905.09;5039097;28;20460;-76
2023/02/22 06:40:28;;;;;;;17.83;9.63;;;;;;;6.29;51.99;100904.44;5017855;28;20050;-76
2023/02/22 06:42:56;;;;;;;16.83;9.52;;;;;;;6.26;51.97;100912.81;5026557;28;20045;-76
2023/02/22 06:45:24;;;;;;;17.75;10.23;;;;;;;6.23;52.26;100910.28;5017357;28;20061;-76
2023/02/22 06:47:52;;;;;;;17.30;9.45;;;;;;;6.20;51.81;100906.94;5040913;28;20065;-76
2023/02/22 06:50:22;;;;;;;18.27;9.50;;;;;;;6.19;52.22;100908.78;5017157;28;20053;-76
2023/02/22 06:52:50;;;;;;;16.23;9.90;;;;;;;6.16;52.22;100911.69;5018823;28;20153;-76
2023/02/22 06:55:22;;;;;;;17.80;10.20;;;;;;;6.15;51.82;100915.38;5027267;28;20037;-76
2023/02/22 06:57:50;;;;;;;16.35;10.10;;;;;;;6.11;51.91;100902.13;5022615;28;20054;-77
2023/02/22 07:00:20;;;;;;;17.58;10.02;;;;;;;6.10;52.02;100901.25;5021839;28;20047;-77
2023/02/22 07:02:48;;;;;;;16.90;10.45;;;;;;;6.07;52.05;100905.03;5021749;28;20034;-77
2023/02/22 07:05:18;;;;;;;17.77;10.02;;;;;;;6.07;52.41;100904.16;5023680;28;20068;-78
2023/02/22 07:07:46;;;;;;;19.77;11.48;;;;;;;6.05;52.46;100904.25;5018665;28;20156;-77
2023/02/22 07:10:21;;;;;;;19.63;11.82;;;;;;;6.07;52.27;100912.31;5026608;28;20084;-76
2023/02/22 07:12:51;;;;;;;18.90;12.70;;;;;;;6.03;52.40;100906.25;5019452;28;20055;-77
2023/02/22 07:15:21;;;;;;;20.95;11.95;;;;;;;6.04;52.23;100907.06;5021737;28;20057;-77
2023/02/22 07:17:49;;;;;;;22.33;12.70;;;;;;;6.03;52.36;100897.22;5019178;28;20107;-78
2023/02/22 07:20:17;;;;;;;17.95;11.02;;;;;;;6.03;52.14;100900.81;5025336;28;20044;-76
2023/02/22 07:22:45;;;;;;;18.08;11.52;;;;;;;6.04;52.40;100899.81;5020016;28;20048;-76
2023/02/22 07:25:12;;;;;;;16.58;10.07;;;;;;;6.06;52.40;100895.13;5023360;28;20583;-76
2023/02/22 07:27:42;;;;;;;15.43;9.45;;;;;;;6.10;52.80;100897.66;5024536;28;20042;-77
2023/02/22 07:30:17;;;;;;;13.35;8.02;;;;;;;6.14;52.41;100896.47;5023200;28;20124;-76
2023/02/22 07:32:46;;;;;;;13.98;8.73;;;;;;;6.14;52.44;100893.75;5038218;28;20513;-76
2023/02/22 07:35:15;;;;;;;12.40;8.20;;;;;;;6.16;52.58;100889.09;5028196;28;20831;-76
2023/02/22 07:37:44;;;;;;;11.60;7.88;;;;;;;6.18;52.53;100892.56;5028032;28;20052;-76
2023/02/22 07:40:12;;;;;;;14.05;8.18;;;;;;;6.20;52.69;100891.47;5027187;28;20788;-76
2023/02/22 07:42:56;;;;;;;14.68;9.10;;;;;;;6.25;53.13;100892.03;5021804;28;20508;-76
2023/02/22 07:45:26;;;;;;;15.57;8.30;;;;;;;6.27;52.71;100892.81;5017123;28;20049;-76
2023/02/22 07:47:54;;;;;;;13.73;8.85;;;;;;;6.31;53.08;100888.03;5019349;28;20123;-77
2023/02/22 07:50:23;;;;;;;12.88;8.10;;;;;;;6.35;53.15;100884.13;5018715;28;20053;-76
2023/02/22 07:52:53;;;;;;;12.32;8.10;;;;;;;6.41;52.93;100883.69;5034770;28;20056;-77
2023/02/22 07:55:24;;;;;;;12.23;7.75;;;;;;;6.44;53.20;100878.91;5021937;28;20049;-75
2023/02/22 07:57:56;;;;;;;13.30;8.52;;;;;;;6.50;52.67;100884.91;5038064;28;20057;-76
2023/02/22 08:00:27;;;;;;;13.90;8.10;;;;;;;6.55;52.98;100875.44;5017885;28;20033;-75
2023/02/22 08:02:56;;;;;;;12.57;7.85;;;;;;;6.59;52.94;100876.97;5018003;28;20041;-75
2023/02/22 08:05:26;;;;;;;12.63;8.00;;;;;;;6.66;53.06;100874.69;5037458;28;20092;-75
2023/02/22 08:07:54;;;;;;;12.07;8.15;;;;;;;6.72;53.32;100874.22;5019623;28;20456;-76
2023/02/22 08:10:24;;;;;;;15.52;8.90;;;;;;;6.80;52.94;100871.88;5020803;28;20106;-75
2023/02/22 08:12:55;;;;;;;15.45;8.85;;;;;;;6.84;53.21;100869.81;5041427;28;20136;-75
2023/02/22 08:15:27;;;;;;;15.20;9.30;;;;;;;6.88;52.94;100871.31;5033645;28;20500;-75
2023/02/22 08:17:56;;;;;;;13.25;8.80;;;;;;;6.92;52.80;100870.13;5038312;28;20439;-75
2023/02/22 08:20:24;;;;;;;14.82;10.10;;;;;;;6.96;53.02;100863.47;5025412;28;20053;-75
2023/02/22 08:22:52;;;;;;;12.52;8.80;;;;;;;7.02;53.02;100854.88;5027115;28;20089;-76
2023/02/22 08:25:22;;;;;;;13.52;9.10;;;;;;;7.07;53.32;100863.56;5028118;28;20501;-75
2023/02/22 08:27:50;;;;;;;13.10;9.05;;;;;;;7.11;53.20;100856.91;5028378;28;20041;-76
2023/02/22 08:30:22;;;;;;;15.10;9.65;;;;;;;7.16;53.10;100850.16;5020033;28;20069;-76
2023/02/22 08:32:51;;;;;;;13.20;8.90;;;;;;;7.16;53.25;100850.16;5021913;28;20049;-75
2023/02/22 08:35:22;;;;;;;15.07;10.00;;;;;;;7.25;53.02;100837.72;5019531;28;20046;-75
2023/02/22 08:37:52;;;;;;;15.07;9.32;;;;;;;7.30;53.47;100840.09;5022420;28;20429;-75
2023/02/22 08:40:26;;;;;;;13.57;9.20;;;;;;;7.34;53.05;100849.78;5025084;28;20132;-75
2023/02/22 08:42:54;;;;;;;14.15;8.93;;;;;;;7.36;53.53;100839.63;5017372;28;20041;-75
2023/02/22 08:45:24;;;;;;;12.77;8.88;;;;;;;7.43;53.13;100843.66;5024629;28;20124;-75
2023/02/22 08:47:51;;;;;;;13.25;8.70;;;;;;;7.47;53.45;100847.88;5022564;28;20064;-75
2023/02/22 08:50:22;;;;;;;15.88;9.93;;;;;;;7.52;52.93;100838.38;5024206;28;20045;-75
2023/02/22 08:52:51;;;;;;;14.88;9.43;;;;;;;7.56;53.12;100839.03;5022924;28;20136;-75
2023/02/22 08:55:20;;;;;;;15.20;9.70;;;;;;;7.61;53.18;100844.97;5024241;28;20049;-75
2023/02/22 08:57:49;;;;;;;15.18;9.63;;;;;;;7.66;53.40;100841.94;5038996;28;20049;-75
2023/02/22 09:00:18;;;;;;;14.18;9.73;;;;;;;7.73;53.04;100843.19;5013631;28;20413;-76
2023/02/22 09:02:49;;;;;;;14.95;9.40;;;;;;;7.79;53.27;100840.00;5019162;28;20526;-75
2023/02/22 09:05:17;;;;;;;14.30;8.95;;;;;;;7.82;53.59;100846.09;5020230;28;20053;-76
2023/02/22 09:07:45;;;;;;;15.20;9.27;;;;;;;7.89;53.39;100843.75;5022148;28;20045;-75
2023/02/22 09:10:15;;;;;;;14.75;9.25;;;;;;;7.98;53.23;100843.06;5015997;28;20061;-75
2023/02/22 09:12:43;;;;;;;15.93;9.45;;;;;;;8.01;53.13;100836.50;5023001;28;20042;-75
2023/02/22 09:15:11;;;;;;;16.17;10.35;;;;;;;8.08;53.16;100835.03;5027735;28;20478;-75
2023/02/22 09:17:39;;;;;;;15.98;9.68;;;;;;;8.13;53.36;100825.53;5025755;28;20468;-76
2023/02/22 09:20:11;;;;;;;14.48;9.40;;;;;;;8.21;53.10;100836.72;5022548;28;20053;-75
2023/02/22 09:22:39;;;;;;;13.15;8.70;;;;;;;8.26;53.20;100831.75;5018666;28;20042;-75
2023/02/22 09:25:07;;;;;;;13.18;9.32;;;;;;;8.34;53.13;100833.91;5020159;28;20598;-75
2023/02/22 09:27:44;;;;;;;13.80;8.35;;;;;;;8.39;52.82;100839.00;5022813;28;20042;-75
2023/02/22 09:30:18;;;;;;;14.00;8.98;;;;;;;8.47;52.69;100842.84;5011380;28;20050;-75
2023/02/22 09:32:45;;;;;;;14.02;9.15;;;;;;;8.53;53.22;100844.22;5019969;28;20334;-75
2023/02/22 09:35:15;;;;;;;18.00;9.98;;;;;;;8.60;52.66;100834.53;5038901;28;20065;-75
2023/02/22 09:37:43;;;;;;;13.15;8.48;;;;;;;8.66;52.85;100837.69;5022814;28;20399;-75
2023/02/22 09:40:23;;;;;;;14.15;8.93;;;;;;;8.75;52.17;100833.34;5012683;28;20046;-75
2023/02/22 09:43:02;;;;;;;14.63;9.57;;;;;;;8.83;51.81;100839.06;5012866;28;20124;-75
2023/02/22 09:45:35;;;;;;;12.07;8.73;;;;;;;8.89;52.03;100832.22;5039462;28;20053;-75
2023/02/22 09:48:07;;;;;;;13.95;9.68;;;;;;;8.96;52.29;100831.59;5018636;28;20121;-75
2023/02/22 09:50:53;;;;;;;16.33;9.15;;;;;;;9.02;51.69;100825.63;5035986;28;20077;-75
2023/02/22 09:53:28;;;;;;;;;;;;;;;8.83;52.23;100827.28;5012446;28;20502;-75
2023/02/22 09:56:00;;;;;;;12.40;8.48;;;;;;;9.10;51.75;100823.16;5035344;28;19921;-75
2023/02/22 09:58:33;;;;;;;13.18;8.93;;;;;;;9.19;51.61;100826.97;5029817;28;20111;-76
2023/02/22 10:01:22;;;;;;;15.07;9.45;;;;;;;9.20;49.75;100820.53;5018187;28;20072;-75
2023/02/22 10:03:56;;;;;;;14.15;9.25;;;;;;;9.30;51.73;100818.78;5026014;28;20049;-76
2023/02/22 10:06:25;;;;;;;15.23;9.68;;;;;;;9.37;51.62;100816.41;5026299;28;20629;-75
2023/02/22 10:08:58;;;;;;;14.82;10.00;;;;;;;9.42;51.31;100817.78;5021930;28;20049;-75
2023/02/22 10:11:40;;;;;;;15.98;10.48;;;;;;;9.46;50.56;100823.88;5019524;28;20141;-75
2023/02/22 10:14:29;;;;;;;15.82;10.23;;;;;;;9.50;50.20;100822.59;5021423;28;20049;-75
2023/02/22 10:17:05;;;;;;;16.27;10.20;;;;;;;9.53;50.40;100816.88;5025603;28;20053;-76
2023/02/22 10:19:43;;;;;;;13.82;9.27;;;;;;;9.60;50.35;100815.38;5017675;28;20054;-75
2023/02/22 10:22:30;;;;;;;14.60;9.43;;;;;;;9.65;49.96;100807.66;5018776;28;20040;-75
2023/02/22 10:25:03;;;;;;;13.20;8.77;;;;;;;9.69;51.03;100811.00;5032203;28;20519;-76
2023/02/22 10:27:34;;;;;;;12.85;8.65;;;;;;;9.73;50.71;100802.41;5022581;28;20805;-76
2023/02/22 10:30:07;;;;;;;14.07;9.35;;;;;;;9.80;50.43;100806.38;5019078;28;20033;-77
2023/02/22 10:32:57;;;;;;;15.25;9.40;;;;;;;9.83;50.69;100803.34;5040631;28;20049;-77
2023/02/22 10:35:28;;;;;;;15.98;9.40;;;;;;;9.90;50.74;100800.13;5029189;28;20046;-76
2023/02/22 10:38:04;;;;;;;13.82;9.10;;;;;;;9.96;49.81;100791.38;5025047;28;20069;-77
2023/02/22 10:40:32;;;;;;;12.95;8.82;;;;;;;9.99;50.60;100791.97;5025162;28;20046;-76
2023/02/22 10:43:05;;;;;;;12.52;7.85;;;;;;;10.06;49.58;100787.72;5043365;28;20038;-76
2023/02/22 10:45:35;;;;;;;14.45;7.93;;;;;;;10.10;50.31;100791.03;5026684;28;20137;-76
2023/02/22 10:48:10;;;;;;;12.57;7.57;;;;;;;10.18;50.25;100783.03;5027868;28;20123;-76
2023/02/22 10:50:40;;;;;;;11.45;8.35;;;;;;;10.24;49.81;100772.41;5026436;28;20061;-76
2023/02/22 10:53:10;;;;;;;16.33;9.55;;;;;;;10.31;49.91;100771.91;5043760;28;20125;-77
2023/02/22 10:56:16;;;;;;;15.27;9.38;;;;;;;10.34;48.56;100771.63;5024050;28;20044;-77
2023/02/22 10:58:49;;;;;;;13.07;8.18;;;;;;;10.40;49.43;100774.66;5023130;28;20062;-76
2023/02/22 11:01:25;;;;;;;12.23;7.25;;;;;;;10.46;49.61;100779.63;5025398;28;20053;-76
2023/02/22 11:04:01;;;;;;;12.10;8.13;;;;;;;10.55;48.86;100770.63;5021048;28;20099;-77
2023/02/22 11:06:30;;;;;;;10.77;7.07;;;;;;;10.60;49.35;100770.22;5042982;28;20726;-76
2023/02/22 11:09:09;;;;;;;12.00;7.90;;;;;;;10.68;47.74;100761.31;5035279;28;20056;-76
2023/02/22 11:11:39;;;;;;;12.05;7.03;;;;;;;10.73;49.34;100764.53;5024284;28;20069;-77
2023/02/22 11:14:09;;;;;;;10.75;6.95;;;;;;;10.78;49.31;100756.75;5027104;28;20045;-77
2023/02/22 11:16:40;;;;;;;11.90;7.47;;;;;;;10.84;48.46;100753.44;5023217;28;20042;-76
2023/02/22 11:19:19;;;;;;;11.43;7.82;;;;;;;10.94;47.21;100757.09;5024118;28;20049;-76
2023/02/22 11:21:50;;;;;;;11.93;7.38;;;;;;;10.98;48.72;100748.44;5023517;28;20164;-76
2023/02/22 11:24:22;;;;;;;11.65;6.93;;;;;;;11.06;48.05;100755.97;5024003;28;20128;-76
2023/02/22 11:26:55;;;;;;;9.40;6.43;;;;;;;11.12;48.83;100757.28;5034522;28;20067;-76
2023/02/22 11:29:27;;;;;;;8.68;5.97;;;;;;;11.18;47.73;100757.59;5024129;28;20064;-75
2023/02/22 11:31:56;;;;;;;8.82;5.65;;;;;;;11.25;48.86;100745.06;5041965;28;20053;-75
2023/02/22 11:34:35;;;;;;;9.07;6.13;;;;;;;11.35;46.80;100737.72;5021686;28;20037;-75
2023/02/22 11:37:28;;;;;;;10.50;6.60;;;;;;;11.43;47.00;100741.63;5022805;28;20157;-75
2023/02/22 11:40:20;;;;;;;9.25;5.97;;;;;;;11.48;46.78;100753.00;5022776;28;20041;-76
2023/02/22 11:42:50;;;;;;;9.98;6.20;;;;;;;11.55;48.51;100744.09;5018610;28;20510;-76
2023/02/22 11:45:22;;;;;;;8.38;5.70;;;;;;;11.66;47.86;100738.50;5026507;28;20057;-76